sensor_id;sensor_type;location;lat;lon;timestamp;P1;durP1;ratioP1;P2;durP2;ratioP2
44204;SDS011;30163;42.698;23.344;2022-12-08T00:01:13;94.30;;;34.65;;
44204;SDS011;30163;42.698;23.344;2022-12-08T00:03:40;97.60;;;35.90;;
44204;SDS011;30163;42.698;23.344;2022-12-08T00:06:07;97.35;;;34.03;;
44204;SDS011;30163;42.698;23.344;2022-12-08T00:08:58;99.65;;;33.75;;
44204;SDS011;30163;42.698;23.344;2022-12-08T00:11:42;105.53;;;36.97;;
44204;SDS011;30163;42.698;23.344;2022-12-08T00:14:07;100.63;;;37.63;;
44204;SDS011;30163;42.698;23.344;2022-12-08T00:16:33;107.22;;;36.42;;
44204;SDS011;30163;42.698;23.344;2022-12-08T00:18:58;89.72;;;35.55;;
44204;SDS011;30163;42.698;23.344;2022-12-08T00:21:23;97.15;;;36.25;;
44204;SDS011;30163;42.698;23.344;2022-12-08T00:23:49;94.47;;;36.35;;
44204;SDS011;30163;42.698;23.344;2022-12-08T00:26:14;100.32;;;36.28;;
44204;SDS011;30163;42.698;23.344;2022-12-08T00:28:39;100.05;;;36.42;;
44204;SDS011;30163;42.698;23.344;2022-12-08T00:31:09;86.78;;;34.80;;
44204;SDS011;30163;42.698;23.344;2022-12-08T00:33:35;103.93;;;39.22;;
44204;SDS011;30163;42.698;23.344;2022-12-08T00:36:07;115.38;;;38.55;;
44204;SDS011;30163;42.698;23.344;2022-12-08T00:38:34;89.88;;;35.42;;
44204;SDS011;30163;42.698;23.344;2022-12-08T00:41:00;95.75;;;36.03;;
44204;SDS011;30163;42.698;23.344;2022-12-08T00:43:26;103.10;;;37.22;;
44204;SDS011;30163;42.698;23.344;2022-12-08T00:45:51;102.05;;;35.28;;
44204;SDS011;30163;42.698;23.344;2022-12-08T00:48:17;92.75;;;33.72;;
44204;SDS011;30163;42.698;23.344;2022-12-08T00:50:42;85.80;;;33.45;;
44204;SDS011;30163;42.698;23.344;2022-12-08T00:53:07;86.47;;;32.65;;
44204;SDS011;30163;42.698;23.344;2022-12-08T00:55:33;97.70;;;35.67;;
44204;SDS011;30163;42.698;23.344;2022-12-08T00:57:58;98.85;;;36.28;;
44204;SDS011;30163;42.698;23.344;2022-12-08T01:00:24;96.20;;;35.88;;
44204;SDS011;30163;42.698;23.344;2022-12-08T01:02:49;93.60;;;36.15;;
44204;SDS011;30163;42.698;23.344;2022-12-08T01:05:14;96.68;;;35.13;;
44204;SDS011;30163;42.698;23.344;2022-12-08T01:07:40;98.63;;;34.83;;
44204;SDS011;30163;42.698;23.344;2022-12-08T01:10:05;90.20;;;34.70;;
44204;SDS011;30163;42.698;23.344;2022-12-08T01:12:31;92.30;;;33.67;;
44204;SDS011;30163;42.698;23.344;2022-12-08T01:14:57;83.97;;;34.50;;
44204;SDS011;30163;42.698;23.344;2022-12-08T01:17:22;92.70;;;35.75;;
44204;SDS011;30163;42.698;23.344;2022-12-08T01:19:47;87.28;;;35.67;;
44204;SDS011;30163;42.698;23.344;2022-12-08T01:22:13;81.85;;;35.30;;
44204;SDS011;30163;42.698;23.344;2022-12-08T01:24:38;90.00;;;35.65;;
44204;SDS011;30163;42.698;23.344;2022-12-08T01:27:04;98.45;;;35.97;;
44204;SDS011;30163;42.698;23.344;2022-12-08T01:29:29;96.70;;;37.63;;
44204;SDS011;30163;42.698;23.344;2022-12-08T01:31:55;92.20;;;36.08;;
44204;SDS011;30163;42.698;23.344;2022-12-08T01:34:20;112.75;;;40.40;;
44204;SDS011;30163;42.698;23.344;2022-12-08T01:36:45;102.63;;;39.10;;
44204;SDS011;30163;42.698;23.344;2022-12-08T01:39:15;97.80;;;38.75;;
44204;SDS011;30163;42.698;23.344;2022-12-08T01:41:42;96.80;;;39.08;;
44204;SDS011;30163;42.698;23.344;2022-12-08T01:46:38;88.88;;;36.00;;
44204;SDS011;30163;42.698;23.344;2022-12-08T01:49:09;91.78;;;36.35;;
44204;SDS011;30163;42.698;23.344;2022-12-08T01:51:40;91.32;;;34.33;;
44204;SDS011;30163;42.698;23.344;2022-12-08T01:54:13;85.95;;;34.83;;
44204;SDS011;30163;42.698;23.344;2022-12-08T01:56:48;86.72;;;36.00;;
44204;SDS011;30163;42.698;23.344;2022-12-08T01:59:16;97.68;;;36.45;;
44204;SDS011;30163;42.698;23.344;2022-12-08T02:01:42;97.50;;;34.38;;
44204;SDS011;30163;42.698;23.344;2022-12-08T02:04:08;83.95;;;36.00;;
44204;SDS011;30163;42.698;23.344;2022-12-08T02:06:34;97.13;;;35.85;;
44204;SDS011;30163;42.698;23.344;2022-12-08T02:09:03;97.85;;;35.58;;
44204;SDS011;30163;42.698;23.344;2022-12-08T02:11:29;94.90;;;35.10;;
44204;SDS011;30163;42.698;23.344;2022-12-08T02:13:55;86.75;;;34.30;;
44204;SDS011;30163;42.698;23.344;2022-12-08T02:16:30;89.15;;;35.78;;
44204;SDS011;30163;42.698;23.344;2022-12-08T02:19:29;89.72;;;34.40;;
44204;SDS011;30163;42.698;23.344;2022-12-08T02:38:28;94.57;;;36.17;;
44204;SDS011;30163;42.698;23.344;2022-12-08T02:41:19;94.55;;;34.90;;
44204;SDS011;30163;42.698;23.344;2022-12-08T02:44:16;100.88;;;36.95;;
44204;SDS011;30163;42.698;23.344;2022-12-08T02:47:20;94.15;;;36.88;;
44204;SDS011;30163;42.698;23.344;2022-12-08T02:49:39;98.47;;;36.45;;
44204;SDS011;30163;42.698;23.344;2022-12-08T02:54:40;104.77;;;36.97;;
44204;SDS011;30163;42.698;23.344;2022-12-08T03:08:14;94.70;;;35.00;;
44204;SDS011;30163;42.698;23.344;2022-12-08T03:13:50;124.07;;;40.30;;
44204;SDS011;30163;42.698;23.344;2022-12-08T03:16:18;94.80;;;36.92;;
44204;SDS011;30163;42.698;23.344;2022-12-08T03:18:48;103.15;;;37.30;;
44204;SDS011;30163;42.698;23.344;2022-12-08T03:21:16;95.82;;;39.25;;
44204;SDS011;30163;42.698;23.344;2022-12-08T03:23:43;105.20;;;37.22;;
44204;SDS011;30163;42.698;23.344;2022-12-08T03:26:11;94.38;;;36.90;;
44204;SDS011;30163;42.698;23.344;2022-12-08T03:28:40;101.85;;;39.17;;
44204;SDS011;30163;42.698;23.344;2022-12-08T03:31:06;109.55;;;38.95;;
44204;SDS011;30163;42.698;23.344;2022-12-08T03:33:37;134.43;;;52.97;;
44204;SDS011;30163;42.698;23.344;2022-12-08T03:36:05;388.40;;;123.05;;
44204;SDS011;30163;42.698;23.344;2022-12-08T03:38:36;223.02;;;90.53;;
44204;SDS011;30163;42.698;23.344;2022-12-08T03:41:06;163.80;;;63.95;;
44204;SDS011;30163;42.698;23.344;2022-12-08T03:46:16;172.73;;;68.10;;
44204;SDS011;30163;42.698;23.344;2022-12-08T03:48:43;180.18;;;67.82;;
44204;SDS011;30163;42.698;23.344;2022-12-08T03:51:08;167.65;;;68.93;;
44204;SDS011;30163;42.698;23.344;2022-12-08T03:53:34;169.48;;;68.03;;
44204;SDS011;30163;42.698;23.344;2022-12-08T03:55:59;163.88;;;66.40;;
44204;SDS011;30163;42.698;23.344;2022-12-08T03:58:25;141.70;;;57.67;;
44204;SDS011;30163;42.698;23.344;2022-12-08T04:00:51;138.90;;;51.60;;
44204;SDS011;30163;42.698;23.344;2022-12-08T04:03:16;170.50;;;62.33;;
44204;SDS011;30163;42.698;23.344;2022-12-08T04:05:41;169.38;;;63.33;;
44204;SDS011;30163;42.698;23.344;2022-12-08T04:08:07;149.55;;;59.17;;
44204;SDS011;30163;42.698;23.344;2022-12-08T04:10:32;128.18;;;51.85;;
44204;SDS011;30163;42.698;23.344;2022-12-08T04:12:58;167.20;;;68.65;;
44204;SDS011;30163;42.698;23.344;2022-12-08T04:15:23;159.80;;;66.45;;
44204;SDS011;30163;42.698;23.344;2022-12-08T04:17:51;203.55;;;70.78;;
44204;SDS011;30163;42.698;23.344;2022-12-08T04:20:17;170.73;;;66.95;;
44204;SDS011;30163;42.698;23.344;2022-12-08T04:22:42;181.73;;;69.55;;
44204;SDS011;30163;42.698;23.344;2022-12-08T04:25:07;178.25;;;68.57;;
44204;SDS011;30163;42.698;23.344;2022-12-08T04:27:33;172.15;;;63.58;;
44204;SDS011;30163;42.698;23.344;2022-12-08T04:29:58;179.55;;;66.07;;
44204;SDS011;30163;42.698;23.344;2022-12-08T04:32:23;174.20;;;65.82;;
44204;SDS011;30163;42.698;23.344;2022-12-08T04:34:49;191.32;;;72.40;;
44204;SDS011;30163;42.698;23.344;2022-12-08T04:37:14;268.23;;;119.07;;
44204;SDS011;30163;42.698;23.344;2022-12-08T04:39:40;210.05;;;90.40;;
44204;SDS011;30163;42.698;23.344;2022-12-08T04:42:05;198.68;;;75.10;;
44204;SDS011;30163;42.698;23.344;2022-12-08T04:44:30;222.32;;;81.20;;
44204;SDS011;30163;42.698;23.344;2022-12-08T04:46:56;193.48;;;73.55;;
44204;SDS011;30163;42.698;23.344;2022-12-08T04:49:21;180.50;;;70.70;;
44204;SDS011;30163;42.698;23.344;2022-12-08T04:51:47;220.27;;;83.43;;
44204;SDS011;30163;42.698;23.344;2022-12-08T04:54:13;237.02;;;93.82;;
44204;SDS011;30163;42.698;23.344;2022-12-08T04:56:38;203.27;;;84.78;;
44204;SDS011;30163;42.698;23.344;2022-12-08T04:59:03;220.70;;;87.22;;
44204;SDS011;30163;42.698;23.344;2022-12-08T05:01:29;215.52;;;84.63;;
44204;SDS011;30163;42.698;23.344;2022-12-08T05:03:54;204.15;;;82.35;;
44204;SDS011;30163;42.698;23.344;2022-12-08T05:06:20;211.90;;;85.75;;
44204;SDS011;30163;42.698;23.344;2022-12-08T05:08:45;223.30;;;89.63;;
44204;SDS011;30163;42.698;23.344;2022-12-08T05:11:11;201.73;;;84.40;;
44204;SDS011;30163;42.698;23.344;2022-12-08T05:13:37;213.90;;;83.93;;
44204;SDS011;30163;42.698;23.344;2022-12-08T05:16:06;185.30;;;79.05;;
44204;SDS011;30163;42.698;23.344;2022-12-08T05:18:34;169.05;;;72.55;;
44204;SDS011;30163;42.698;23.344;2022-12-08T05:21:00;191.38;;;76.60;;
44204;SDS011;30163;42.698;23.344;2022-12-08T05:23:26;213.48;;;85.55;;
44204;SDS011;30163;42.698;23.344;2022-12-08T05:25:51;183.93;;;78.30;;
44204;SDS011;30163;42.698;23.344;2022-12-08T05:28:17;222.55;;;82.53;;
44204;SDS011;30163;42.698;23.344;2022-12-08T05:30:42;187.77;;;77.82;;
44204;SDS011;30163;42.698;23.344;2022-12-08T05:33:08;181.15;;;72.68;;
44204;SDS011;30163;42.698;23.344;2022-12-08T05:35:33;195.52;;;75.90;;
44204;SDS011;30163;42.698;23.344;2022-12-08T05:37:58;191.60;;;73.13;;
44204;SDS011;30163;42.698;23.344;2022-12-08T05:40:24;205.82;;;74.00;;
44204;SDS011;30163;42.698;23.344;2022-12-08T05:42:49;178.73;;;66.90;;
44204;SDS011;30163;42.698;23.344;2022-12-08T05:45:15;187.25;;;67.78;;
44204;SDS011;30163;42.698;23.344;2022-12-08T05:47:40;174.45;;;70.30;;
44204;SDS011;30163;42.698;23.344;2022-12-08T05:50:05;179.50;;;63.90;;
44204;SDS011;30163;42.698;23.344;2022-12-08T05:52:31;173.40;;;63.75;;
44204;SDS011;30163;42.698;23.344;2022-12-08T05:54:57;189.75;;;75.10;;
44204;SDS011;30163;42.698;23.344;2022-12-08T05:57:22;182.80;;;70.53;;
44204;SDS011;30163;42.698;23.344;2022-12-08T05:59:48;183.63;;;71.20;;
44204;SDS011;30163;42.698;23.344;2022-12-08T06:02:13;181.30;;;72.30;;
44204;SDS011;30163;42.698;23.344;2022-12-08T06:04:38;168.95;;;67.38;;
44204;SDS011;30163;42.698;23.344;2022-12-08T06:07:04;166.85;;;67.43;;
44204;SDS011;30163;42.698;23.344;2022-12-08T06:09:29;173.50;;;63.65;;
44204;SDS011;30163;42.698;23.344;2022-12-08T06:11:55;163.70;;;63.90;;
44204;SDS011;30163;42.698;23.344;2022-12-08T06:14:20;153.48;;;58.38;;
44204;SDS011;30163;42.698;23.344;2022-12-08T06:16:46;175.35;;;61.92;;
44204;SDS011;30163;42.698;23.344;2022-12-08T06:19:11;191.98;;;67.32;;
44204;SDS011;30163;42.698;23.344;2022-12-08T06:21:36;215.02;;;79.70;;
44204;SDS011;30163;42.698;23.344;2022-12-08T06:24:02;205.52;;;77.45;;
44204;SDS011;30163;42.698;23.344;2022-12-08T06:26:27;264.55;;;106.45;;
44204;SDS011;30163;42.698;23.344;2022-12-08T06:28:52;315.90;;;131.63;;
44204;SDS011;30163;42.698;23.344;2022-12-08T06:31:19;293.40;;;116.80;;
44204;SDS011;30163;42.698;23.344;2022-12-08T06:33:48;252.75;;;99.93;;
44204;SDS011;30163;42.698;23.344;2022-12-08T06:36:14;243.75;;;101.28;;
44204;SDS011;30163;42.698;23.344;2022-12-08T06:38:41;298.92;;;123.72;;
44204;SDS011;30163;42.698;23.344;2022-12-08T06:41:07;265.20;;;110.72;;
44204;SDS011;30163;42.698;23.344;2022-12-08T06:43:32;256.77;;;107.28;;
44204;SDS011;30163;42.698;23.344;2022-12-08T06:45:58;257.58;;;106.07;;
44204;SDS011;30163;42.698;23.344;2022-12-08T06:48:25;262.42;;;111.63;;
44204;SDS011;30163;42.698;23.344;2022-12-08T06:50:50;237.93;;;99.03;;
44204;SDS011;30163;42.698;23.344;2022-12-08T06:53:16;195.98;;;80.32;;
44204;SDS011;30163;42.698;23.344;2022-12-08T06:55:45;183.00;;;74.30;;
44204;SDS011;30163;42.698;23.344;2022-12-08T06:58:11;171.50;;;68.72;;
44204;SDS011;30163;42.698;23.344;2022-12-08T07:00:38;159.10;;;63.80;;
44204;SDS011;30163;42.698;23.344;2022-12-08T07:03:03;145.93;;;65.35;;
44204;SDS011;30163;42.698;23.344;2022-12-08T07:05:29;158.45;;;67.00;;
44204;SDS011;30163;42.698;23.344;2022-12-08T07:07:54;154.65;;;69.80;;
44204;SDS011;30163;42.698;23.344;2022-12-08T07:10:19;137.57;;;64.55;;
44204;SDS011;30163;42.698;23.344;2022-12-08T07:12:45;151.10;;;74.10;;
44204;SDS011;30163;42.698;23.344;2022-12-08T07:15:10;169.90;;;77.07;;
44204;SDS011;30163;42.698;23.344;2022-12-08T07:17:35;173.35;;;81.18;;
44204;SDS011;30163;42.698;23.344;2022-12-08T07:20:01;174.82;;;72.93;;
44204;SDS011;30163;42.698;23.344;2022-12-08T07:22:26;150.32;;;64.30;;
44204;SDS011;30163;42.698;23.344;2022-12-08T07:24:52;168.27;;;67.82;;
44204;SDS011;30163;42.698;23.344;2022-12-08T07:27:17;153.50;;;62.33;;
44204;SDS011;30163;42.698;23.344;2022-12-08T07:29:43;169.05;;;71.85;;
44204;SDS011;30163;42.698;23.344;2022-12-08T07:32:08;173.98;;;73.15;;
44204;SDS011;30163;42.698;23.344;2022-12-08T07:34:34;187.45;;;79.95;;
44204;SDS011;30163;42.698;23.344;2022-12-08T07:36:59;196.73;;;79.25;;
44204;SDS011;30163;42.698;23.344;2022-12-08T07:39:24;196.82;;;85.70;;
44204;SDS011;30163;42.698;23.344;2022-12-08T07:41:50;191.98;;;80.22;;
44204;SDS011;30163;42.698;23.344;2022-12-08T07:44:15;187.27;;;78.05;;
44204;SDS011;30163;42.698;23.344;2022-12-08T07:46:41;195.25;;;81.32;;
44204;SDS011;30163;42.698;23.344;2022-12-08T07:49:06;194.27;;;87.47;;
44204;SDS011;30163;42.698;23.344;2022-12-08T07:51:31;207.98;;;85.55;;
44204;SDS011;30163;42.698;23.344;2022-12-08T07:53:57;186.20;;;79.78;;
44204;SDS011;30163;42.698;23.344;2022-12-08T07:56:22;179.48;;;74.03;;
44204;SDS011;30163;42.698;23.344;2022-12-08T07:58:48;160.13;;;69.85;;
44204;SDS011;30163;42.698;23.344;2022-12-08T08:01:18;157.95;;;68.57;;
44204;SDS011;30163;42.698;23.344;2022-12-08T08:03:43;155.50;;;68.28;;
44204;SDS011;30163;42.698;23.344;2022-12-08T08:06:09;148.18;;;62.35;;
44204;SDS011;30163;42.698;23.344;2022-12-08T08:08:34;166.32;;;66.72;;
44204;SDS011;30163;42.698;23.344;2022-12-08T08:10:59;158.77;;;64.25;;
44204;SDS011;30163;42.698;23.344;2022-12-08T08:13:25;154.25;;;65.93;;
44204;SDS011;30163;42.698;23.344;2022-12-08T08:15:50;158.60;;;65.93;;
44204;SDS011;30163;42.698;23.344;2022-12-08T08:18:16;140.15;;;62.42;;
44204;SDS011;30163;42.698;23.344;2022-12-08T08:20:41;134.13;;;56.90;;
44204;SDS011;30163;42.698;23.344;2022-12-08T08:23:06;117.70;;;52.47;;
44204;SDS011;30163;42.698;23.344;2022-12-08T08:25:32;124.10;;;50.33;;
44204;SDS011;30163;42.698;23.344;2022-12-08T08:27:57;116.43;;;49.97;;
44204;SDS011;30163;42.698;23.344;2022-12-08T08:30:22;105.13;;;48.65;;
44204;SDS011;30163;42.698;23.344;2022-12-08T08:32:48;90.78;;;40.45;;
44204;SDS011;30163;42.698;23.344;2022-12-08T08:35:14;96.35;;;41.55;;
44204;SDS011;30163;42.698;23.344;2022-12-08T08:37:40;96.05;;;39.15;;
44204;SDS011;30163;42.698;23.344;2022-12-08T08:40:05;79.55;;;36.08;;
44204;SDS011;30163;42.698;23.344;2022-12-08T08:42:31;78.80;;;37.05;;
44204;SDS011;30163;42.698;23.344;2022-12-08T08:44:56;84.82;;;37.38;;
44204;SDS011;30163;42.698;23.344;2022-12-08T08:47:22;81.80;;;34.55;;
44204;SDS011;30163;42.698;23.344;2022-12-08T08:49:47;71.00;;;33.80;;
44204;SDS011;30163;42.698;23.344;2022-12-08T08:52:13;104.22;;;40.78;;
44204;SDS011;30163;42.698;23.344;2022-12-08T08:54:38;101.57;;;45.90;;
44204;SDS011;30163;42.698;23.344;2022-12-08T08:57:03;128.05;;;54.47;;
44204;SDS011;30163;42.698;23.344;2022-12-08T08:59:29;127.03;;;52.83;;
44204;SDS011;30163;42.698;23.344;2022-12-08T09:01:54;106.60;;;49.33;;
44204;SDS011;30163;42.698;23.344;2022-12-08T09:04:21;95.65;;;47.65;;
44204;SDS011;30163;42.698;23.344;2022-12-08T09:06:46;108.30;;;45.63;;
44204;SDS011;30163;42.698;23.344;2022-12-08T09:09:12;104.82;;;42.38;;
44204;SDS011;30163;42.698;23.344;2022-12-08T09:11:37;102.72;;;45.00;;
44204;SDS011;30163;42.698;23.344;2022-12-08T09:14:03;115.38;;;45.53;;
44204;SDS011;30163;42.698;23.344;2022-12-08T09:16:28;108.10;;;52.08;;
44204;SDS011;30163;42.698;23.344;2022-12-08T09:18:54;100.75;;;50.25;;
44204;SDS011;30163;42.698;23.344;2022-12-08T09:21:20;126.03;;;52.30;;
44204;SDS011;30163;42.698;23.344;2022-12-08T09:23:52;105.55;;;48.40;;
44204;SDS011;30163;42.698;23.344;2022-12-08T09:26:19;127.75;;;60.70;;
44204;SDS011;30163;42.698;23.344;2022-12-08T09:28:48;133.50;;;63.03;;
44204;SDS011;30163;42.698;23.344;2022-12-08T09:31:15;142.02;;;63.35;;
44204;SDS011;30163;42.698;23.344;2022-12-08T09:33:41;145.55;;;65.43;;
44204;SDS011;30163;42.698;23.344;2022-12-08T09:36:06;129.95;;;60.80;;
44204;SDS011;30163;42.698;23.344;2022-12-08T09:38:33;134.63;;;62.38;;
44204;SDS011;30163;42.698;23.344;2022-12-08T09:40:58;142.05;;;66.47;;
44204;SDS011;30163;42.698;23.344;2022-12-08T09:46:27;178.80;;;71.93;;
44204;SDS011;30163;42.698;23.344;2022-12-08T09:48:56;146.98;;;68.47;;
44204;SDS011;30163;42.698;23.344;2022-12-08T09:51:23;152.07;;;66.28;;
44204;SDS011;30163;42.698;23.344;2022-12-08T09:53:51;155.68;;;63.47;;
44204;SDS011;30163;42.698;23.344;2022-12-08T09:56:26;153.88;;;66.30;;
44204;SDS011;30163;42.698;23.344;2022-12-08T10:01:37;171.70;;;69.13;;
44204;SDS011;30163;42.698;23.344;2022-12-08T10:04:21;133.82;;;58.17;;
44204;SDS011;30163;42.698;23.344;2022-12-08T10:07:02;130.63;;;52.78;;
44204;SDS011;30163;42.698;23.344;2022-12-08T10:17:11;96.65;;;45.95;;
44204;SDS011;30163;42.698;23.344;2022-12-08T10:19:40;78.57;;;36.35;;
44204;SDS011;30163;42.698;23.344;2022-12-08T10:22:14;77.88;;;34.92;;
44204;SDS011;30163;42.698;23.344;2022-12-08T10:24:45;84.30;;;34.85;;
44204;SDS011;30163;42.698;23.344;2022-12-08T10:27:33;74.00;;;33.78;;
44204;SDS011;30163;42.698;23.344;2022-12-08T10:29:59;86.20;;;37.10;;
44204;SDS011;30163;42.698;23.344;2022-12-08T10:32:26;72.97;;;35.65;;
44204;SDS011;30163;42.698;23.344;2022-12-08T10:35:08;85.05;;;40.10;;
44204;SDS011;30163;42.698;23.344;2022-12-08T10:37:37;83.45;;;36.17;;
44204;SDS011;30163;42.698;23.344;2022-12-08T10:40:10;76.05;;;33.33;;
44204;SDS011;30163;42.698;23.344;2022-12-08T10:42:48;79.68;;;33.00;;
44204;SDS011;30163;42.698;23.344;2022-12-08T10:48:04;74.47;;;26.83;;
44204;SDS011;30163;42.698;23.344;2022-12-08T10:50:44;53.22;;;26.23;;
44204;SDS011;30163;42.698;23.344;2022-12-08T10:53:23;54.03;;;25.95;;
44204;SDS011;30163;42.698;23.344;2022-12-08T11:01:08;63.08;;;26.67;;
44204;SDS011;30163;42.698;23.344;2022-12-08T11:03:36;53.08;;;24.02;;
44204;SDS011;30163;42.698;23.344;2022-12-08T11:06:17;49.33;;;21.98;;
44204;SDS011;30163;42.698;23.344;2022-12-08T11:09:04;56.13;;;22.88;;
44204;SDS011;30163;42.698;23.344;2022-12-08T11:14:11;49.70;;;21.13;;
44204;SDS011;30163;42.698;23.344;2022-12-08T11:16:43;65.38;;;22.42;;
44204;SDS011;30163;42.698;23.344;2022-12-08T11:19:13;55.83;;;20.83;;
44204;SDS011;30163;42.698;23.344;2022-12-08T11:21:40;49.17;;;21.73;;
44204;SDS011;30163;42.698;23.344;2022-12-08T11:26:53;50.95;;;23.15;;
44204;SDS011;30163;42.698;23.344;2022-12-08T11:29:23;46.35;;;22.35;;
44204;SDS011;30163;42.698;23.344;2022-12-08T11:31:51;54.05;;;23.30;;
44204;SDS011;30163;42.698;23.344;2022-12-08T11:36:55;57.60;;;24.75;;
44204;SDS011;30163;42.698;23.344;2022-12-08T11:39:21;61.17;;;27.63;;
44204;SDS011;30163;42.698;23.344;2022-12-08T11:41:50;53.90;;;24.80;;
44204;SDS011;30163;42.698;23.344;2022-12-08T11:46:54;77.00;;;27.52;;
44204;SDS011;30163;42.698;23.344;2022-12-08T11:49:32;57.22;;;24.52;;
44204;SDS011;30163;42.698;23.344;2022-12-08T11:54:54;52.55;;;23.52;;
44204;SDS011;30163;42.698;23.344;2022-12-08T11:57:49;43.10;;;20.80;;
44204;SDS011;30163;42.698;23.344;2022-12-08T12:00:16;44.08;;;20.38;;
44204;SDS011;30163;42.698;23.344;2022-12-08T12:02:47;35.85;;;18.85;;
44204;SDS011;30163;42.698;23.344;2022-12-08T12:18:44;62.10;;;22.65;;
44204;SDS011;30163;42.698;23.344;2022-12-08T12:21:22;40.47;;;21.00;;
44204;SDS011;30163;42.698;23.344;2022-12-08T12:24:05;49.30;;;19.20;;
44204;SDS011;30163;42.698;23.344;2022-12-08T12:26:33;56.78;;;18.27;;
44204;SDS011;30163;42.698;23.344;2022-12-08T12:29:17;37.50;;;17.15;;
44204;SDS011;30163;42.698;23.344;2022-12-08T12:31:48;39.78;;;19.73;;
44204;SDS011;30163;42.698;23.344;2022-12-08T12:34:20;37.83;;;16.80;;
44204;SDS011;30163;42.698;23.344;2022-12-08T12:36:51;33.25;;;15.68;;
44204;SDS011;30163;42.698;23.344;2022-12-08T12:39:22;29.13;;;16.60;;
44204;SDS011;30163;42.698;23.344;2022-12-08T12:42:00;37.60;;;17.33;;
44204;SDS011;30163;42.698;23.344;2022-12-08T12:46:58;28.35;;;14.95;;
44204;SDS011;30163;42.698;23.344;2022-12-08T12:50:03;25.73;;;14.38;;
44204;SDS011;30163;42.698;23.344;2022-12-08T12:57:14;41.65;;;15.38;;
44204;SDS011;30163;42.698;23.344;2022-12-08T13:05:12;35.08;;;15.32;;
44204;SDS011;30163;42.698;23.344;2022-12-08T13:10:19;43.00;;;17.15;;
44204;SDS011;30163;42.698;23.344;2022-12-08T13:12:46;42.90;;;20.33;;
44204;SDS011;30163;42.698;23.344;2022-12-08T13:15:28;37.05;;;18.42;;
44204;SDS011;30163;42.698;23.344;2022-12-08T13:17:58;45.78;;;19.88;;
44204;SDS011;30163;42.698;23.344;2022-12-08T13:20:24;53.63;;;21.65;;
44204;SDS011;30163;42.698;23.344;2022-12-08T13:33:10;63.60;;;31.42;;
44204;SDS011;30163;42.698;23.344;2022-12-08T13:36:09;78.63;;;31.65;;
44204;SDS011;30163;42.698;23.344;2022-12-08T13:38:38;86.03;;;33.97;;
44204;SDS011;30163;42.698;23.344;2022-12-08T13:41:18;75.75;;;34.08;;
44204;SDS011;30163;42.698;23.344;2022-12-08T13:43:58;65.32;;;30.30;;
44204;SDS011;30163;42.698;23.344;2022-12-08T13:46:28;58.28;;;28.50;;
44204;SDS011;30163;42.698;23.344;2022-12-08T13:48:58;76.83;;;31.03;;
44204;SDS011;30163;42.698;23.344;2022-12-08T13:51:30;42.55;;;20.80;;
44204;SDS011;30163;42.698;23.344;2022-12-08T13:54:08;45.50;;;18.40;;
44204;SDS011;30163;42.698;23.344;2022-12-08T13:56:40;46.47;;;18.70;;
44204;SDS011;30163;42.698;23.344;2022-12-08T14:01:46;44.78;;;20.38;;
44204;SDS011;30163;42.698;23.344;2022-12-08T14:04:13;49.00;;;21.05;;
44204;SDS011;30163;42.698;23.344;2022-12-08T14:06:42;46.55;;;19.67;;
44204;SDS011;30163;42.698;23.344;2022-12-08T14:09:11;51.40;;;21.02;;
44204;SDS011;30163;42.698;23.344;2022-12-08T14:11:41;55.15;;;23.30;;
44204;SDS011;30163;42.698;23.344;2022-12-08T14:14:16;56.03;;;23.30;;
44204;SDS011;30163;42.698;23.344;2022-12-08T14:16:48;63.47;;;21.77;;
44204;SDS011;30163;42.698;23.344;2022-12-08T14:19:24;46.83;;;21.27;;
44204;SDS011;30163;42.698;23.344;2022-12-08T14:21:55;68.90;;;24.27;;
44204;SDS011;30163;42.698;23.344;2022-12-08T14:24:23;63.90;;;22.48;;
44204;SDS011;30163;42.698;23.344;2022-12-08T14:26:50;63.97;;;27.05;;
44204;SDS011;30163;42.698;23.344;2022-12-08T14:34:49;67.30;;;29.15;;
44204;SDS011;30163;42.698;23.344;2022-12-08T14:37:16;67.85;;;29.70;;
44204;SDS011;30163;42.698;23.344;2022-12-08T14:39:41;82.38;;;30.73;;
44204;SDS011;30163;42.698;23.344;2022-12-08T14:42:11;74.28;;;30.08;;
44204;SDS011;30163;42.698;23.344;2022-12-08T14:44:54;89.88;;;35.75;;
44204;SDS011;30163;42.698;23.344;2022-12-08T14:49:46;90.78;;;36.42;;
44204;SDS011;30163;42.698;23.344;2022-12-08T14:52:12;87.85;;;37.20;;
44204;SDS011;30163;42.698;23.344;2022-12-08T14:54:38;80.07;;;32.45;;
44204;SDS011;30163;42.698;23.344;2022-12-08T14:57:05;85.95;;;34.60;;
44204;SDS011;30163;42.698;23.344;2022-12-08T15:04:36;70.20;;;30.33;;
44204;SDS011;30163;42.698;23.344;2022-12-08T15:07:16;73.60;;;33.65;;
44204;SDS011;30163;42.698;23.344;2022-12-08T15:09:47;73.97;;;31.17;;
44204;SDS011;30163;42.698;23.344;2022-12-08T15:14:52;88.80;;;34.80;;
44204;SDS011;30163;42.698;23.344;2022-12-08T15:20:27;93.50;;;37.30;;
44204;SDS011;30163;42.698;23.344;2022-12-08T15:25:44;97.45;;;36.65;;
44204;SDS011;30163;42.698;23.344;2022-12-08T15:28:12;103.43;;;34.25;;
44204;SDS011;30163;42.698;23.344;2022-12-08T15:30:38;87.68;;;31.15;;
44204;SDS011;30163;42.698;23.344;2022-12-08T15:33:04;107.63;;;39.45;;
44204;SDS011;30163;42.698;23.344;2022-12-08T15:35:29;102.25;;;39.80;;
44204;SDS011;30163;42.698;23.344;2022-12-08T15:37:54;93.35;;;35.13;;
44204;SDS011;30163;42.698;23.344;2022-12-08T15:40:20;86.78;;;34.45;;
44204;SDS011;30163;42.698;23.344;2022-12-08T15:42:47;98.18;;;39.33;;
44204;SDS011;30163;42.698;23.344;2022-12-08T15:45:13;119.40;;;41.88;;
44204;SDS011;30163;42.698;23.344;2022-12-08T15:47:40;123.70;;;50.75;;
44204;SDS011;30163;42.698;23.344;2022-12-08T15:50:06;105.75;;;42.45;;
44204;SDS011;30163;42.698;23.344;2022-12-08T15:52:31;59.78;;;26.67;;
44204;SDS011;30163;42.698;23.344;2022-12-08T15:54:57;75.50;;;28.02;;
44204;SDS011;30163;42.698;23.344;2022-12-08T15:57:27;69.95;;;26.75;;
44204;SDS011;30163;42.698;23.344;2022-12-08T15:59:54;60.45;;;24.83;;
44204;SDS011;30163;42.698;23.344;2022-12-08T16:02:19;67.32;;;25.02;;
44204;SDS011;30163;42.698;23.344;2022-12-08T16:04:46;57.67;;;25.10;;
44204;SDS011;30163;42.698;23.344;2022-12-08T16:07:27;76.70;;;34.03;;
44204;SDS011;30163;42.698;23.344;2022-12-08T16:09:54;75.50;;;32.97;;
44204;SDS011;30163;42.698;23.344;2022-12-08T16:12:28;87.07;;;35.15;;
44204;SDS011;30163;42.698;23.344;2022-12-08T16:15:12;105.53;;;43.80;;
44204;SDS011;30163;42.698;23.344;2022-12-08T16:17:39;78.38;;;34.75;;
44204;SDS011;30163;42.698;23.344;2022-12-08T16:20:09;83.82;;;31.80;;
44204;SDS011;30163;42.698;23.344;2022-12-08T16:22:36;71.73;;;29.60;;
44204;SDS011;30163;42.698;23.344;2022-12-08T16:25:02;50.90;;;21.45;;